sensor_id;sensor_type;location;lat;lon;timestamp;temperature;humidity
74520;DHT22;63002;48.134;-1.948;2024-01-30T06:00:07;18.80;59.80
74520;DHT22;63002;48.134;-1.948;2024-01-30T06:02:34;18.80;59.80
74520;DHT22;63002;48.134;-1.948;2024-01-30T06:04:59;18.80;59.90
74520;DHT22;63002;48.134;-1.948;2024-01-30T06:07:25;18.80;59.90
74520;DHT22;63002;48.134;-1.948;2024-01-30T06:09:51;18.80;59.90
74520;DHT22;63002;48.134;-1.948;2024-01-30T06:12:17;19.00;60.50
74520;DHT22;63002;48.134;-1.948;2024-01-30T06:14:42;19.10;60.40
74520;DHT22;63002;48.134;-1.948;2024-01-30T06:17:08;19.20;60.70
74520;DHT22;63002;48.134;-1.948;2024-01-30T06:19:34;19.30;60.60
74520;DHT22;63002;48.134;-1.948;2024-01-30T06:22:00;19.40;60.70
74520;DHT22;63002;48.134;-1.948;2024-01-30T06:24:26;19.50;60.60
74520;DHT22;63002;48.134;-1.948;2024-01-30T06:26:53;19.40;60.20
74520;DHT22;63002;48.134;-1.948;2024-01-30T06:29:18;19.60;60.50
74520;DHT22;63002;48.134;-1.948;2024-01-30T06:31:44;19.70;58.10
74520;DHT22;63002;48.134;-1.948;2024-01-30T06:34:10;19.70;60.20
74520;DHT22;63002;48.134;-1.948;2024-01-30T06:36:39;19.70;60.10
74520;DHT22;63002;48.134;-1.948;2024-01-30T06:39:05;19.70;59.80
74520;DHT22;63002;48.134;-1.948;2024-01-30T06:41:31;19.60;60.00
74520;DHT22;63002;48.134;-1.948;2024-01-30T06:43:57;19.40;60.10
74520;DHT22;63002;48.134;-1.948;2024-01-30T06:46:22;19.40;60.30
74520;DHT22;63002;48.134;-1.948;2024-01-30T06:48:48;19.30;60.30
74520;DHT22;63002;48.134;-1.948;2024-01-30T06:51:14;19.40;60.30
74520;DHT22;63002;48.134;-1.948;2024-01-30T06:53:39;19.30;60.30
74520;DHT22;63002;48.134;-1.948;2024-01-30T06:56:06;19.30;60.30
74520;DHT22;63002;48.134;-1.948;2024-01-30T06:58:31;19.30;60.30
74520;DHT22;63002;48.134;-1.948;2024-01-30T07:00:58;19.30;60.30
74520;DHT22;63002;48.134;-1.948;2024-01-30T07:03:24;19.30;60.30
74520;DHT22;63002;48.134;-1.948;2024-01-30T07:05:53;19.30;60.30
74520;DHT22;63002;48.134;-1.948;2024-01-30T07:08:19;19.10;54.30
74520;DHT22;63002;48.134;-1.948;2024-01-30T07:10:44;18.60;57.70
74520;DHT22;63002;48.134;-1.948;2024-01-30T07:13:13;18.70;59.10
74520;DHT22;63002;48.134;-1.948;2024-01-30T07:15:42;18.80;58.40
74520;DHT22;63002;48.134;-1.948;2024-01-30T07:18:07;18.80;58.70
74520;DHT22;63002;48.134;-1.948;2024-01-30T07:20:35;18.90;59.00
74520;DHT22;63002;48.134;-1.948;2024-01-30T07:23:01;18.90;59.50
74520;DHT22;63002;48.134;-1.948;2024-01-30T07:25:27;19.00;59.50
74520;DHT22;63002;48.134;-1.948;2024-01-30T07:27:55;19.00;59.60
74520;DHT22;63002;48.134;-1.948;2024-01-30T07:30:21;19.00;59.70
74520;DHT22;63002;48.134;-1.948;2024-01-30T07:32:47;19.00;59.70
74520;DHT22;63002;48.134;-1.948;2024-01-30T07:35:13;19.00;59.80
74520;DHT22;63002;48.134;-1.948;2024-01-30T07:37:40;19.00;59.80
74520;DHT22;63002;48.134;-1.948;2024-01-30T07:40:06;19.10;59.80
74520;DHT22;63002;48.134;-1.948;2024-01-30T07:42:32;19.00;59.80
74520;DHT22;63002;48.134;-1.948;2024-01-30T07:44:59;19.00;59.80
74520;DHT22;63002;48.134;-1.948;2024-01-30T07:47:25;19.10;59.90
74520;DHT22;63002;48.134;-1.948;2024-01-30T07:49:51;19.10;59.90
74520;DHT22;63002;48.134;-1.948;2024-01-30T07:52:17;19.10;59.80
74520;DHT22;63002;48.134;-1.948;2024-01-30T07:54:49;19.20;59.80
74520;DHT22;63002;48.134;-1.948;2024-01-30T07:57:15;19.40;59.90
74520;DHT22;63002;48.134;-1.948;2024-01-30T07:59:44;19.50;59.80
74520;DHT22;63002;48.134;-1.948;2024-01-30T08:02:12;19.40;60.10
74520;DHT22;63002;48.134;-1.948;2024-01-30T08:04:39;19.40;59.80
74520;DHT22;63002;48.134;-1.948;2024-01-30T08:07:04;19.40;59.60
74520;DHT22;63002;48.134;-1.948;2024-01-30T08:09:30;19.40;59.40
74520;DHT22;63002;48.134;-1.948;2024-01-30T08:11:56;19.40;59.20
74520;DHT22;63002;48.134;-1.948;2024-01-30T08:14:28;19.40;59.00
74520;DHT22;63002;48.134;-1.948;2024-01-30T08:16:55;19.50;58.90
74520;DHT22;63002;48.134;-1.948;2024-01-30T08:19:21;19.50;58.70
74520;DHT22;63002;48.134;-1.948;2024-01-30T08:21:47;19.50;58.50
74520;DHT22;63002;48.134;-1.948;2024-01-30T08:24:12;19.50;58.50
74520;DHT22;63002;48.134;-1.948;2024-01-30T08:26:38;19.50;58.60
74520;DHT22;63002;48.134;-1.948;2024-01-30T08:29:04;19.40;58.60
74520;DHT22;63002;48.134;-1.948;2024-01-30T08:31:29;19.40;58.80
74520;DHT22;63002;48.134;-1.948;2024-01-30T08:33:55;19.30;59.00
74520;DHT22;63002;48.134;-1.948;2024-01-30T08:36:24;19.30;59.00
74520;DHT22;63002;48.134;-1.948;2024-01-30T08:38:50;19.30;59.10
74520;DHT22;63002;48.134;-1.948;2024-01-30T08:41:16;19.20;59.10
74520;DHT22;63002;48.134;-1.948;2024-01-30T08:43:42;19.20;59.10
74520;DHT22;63002;48.134;-1.948;2024-01-30T08:46:07;19.20;59.20
74520;DHT22;63002;48.134;-1.948;2024-01-30T08:48:33;19.20;59.20
74520;DHT22;63002;48.134;-1.948;2024-01-30T08:50:59;19.20;59.20
74520;DHT22;63002;48.134;-1.948;2024-01-30T08:53:24;19.20;59.20
74520;DHT22;63002;48.134;-1.948;2024-01-30T08:55:50;19.20;59.20
74520;DHT22;63002;48.134;-1.948;2024-01-30T08:58:16;19.20;59.20
74520;DHT22;63002;48.134;-1.948;2024-01-30T09:00:43;19.10;59.20
74520;DHT22;63002;48.134;-1.948;2024-01-30T09:03:09;19.10;59.30
74520;DHT22;63002;48.134;-1.948;2024-01-30T09:05:35;19.10;59.30
74520;DHT22;63002;48.134;-1.948;2024-01-30T09:08:00;19.10;59.20
74520;DHT22;63002;48.134;-1.948;2024-01-30T09:10:26;19.10;59.30
74520;DHT22;63002;48.134;-1.948;2024-01-30T09:12:52;19.10;59.30
74520;DHT22;63002;48.134;-1.948;2024-01-30T09:15:18;19.10;59.30
74520;DHT22;63002;48.134;-1.948;2024-01-30T09:17:44;19.10;59.30
74520;DHT22;63002;48.134;-1.948;2024-01-30T09:20:10;19.10;59.30
74520;DHT22;63002;48.134;-1.948;2024-01-30T09:22:36;19.10;59.30
74520;DHT22;63002;48.134;-1.948;2024-01-30T09:25:02;19.10;59.30
74520;DHT22;63002;48.134;-1.948;2024-01-30T09:27:27;19.10;59.30
74520;DHT22;63002;48.134;-1.948;2024-01-30T09:29:53;19.10;59.30
74520;DHT22;63002;48.134;-1.948;2024-01-30T09:32:19;19.10;59.30
74520;DHT22;63002;48.134;-1.948;2024-01-30T09:34:45;19.00;59.30
74520;DHT22;63002;48.134;-1.948;2024-01-30T09:37:11;19.00;59.30
74520;DHT22;63002;48.134;-1.948;2024-01-30T09:39:37;19.00;59.20
74520;DHT22;63002;48.134;-1.948;2024-01-30T09:42:10;19.00;59.20
74520;DHT22;63002;48.134;-1.948;2024-01-30T09:44:38;19.00;59.20
74520;DHT22;63002;48.134;-1.948;2024-01-30T09:47:04;19.00;59.30
74520;DHT22;63002;48.134;-1.948;2024-01-30T09:49:34;19.00;59.30
74520;DHT22;63002;48.134;-1.948;2024-01-30T09:52:02;19.00;59.30
74520;DHT22;63002;48.134;-1.948;2024-01-30T09:54:31;19.00;59.30
74520;DHT22;63002;48.134;-1.948;2024-01-30T09:57:00;19.00;59.30
74520;DHT22;63002;48.134;-1.948;2024-01-30T09:59:26;19.00;59.30
74520;DHT22;63002;48.134;-1.948;2024-01-30T10:01:52;19.00;59.20
74520;DHT22;63002;48.134;-1.948;2024-01-30T10:04:18;19.00;59.20
74520;DHT22;63002;48.134;-1.948;2024-01-30T10:06:43;19.00;59.20
74520;DHT22;63002;48.134;-1.948;2024-01-30T10:09:09;19.00;59.20
74520;DHT22;63002;48.134;-1.948;2024-01-30T10:11:36;19.00;59.20
74520;DHT22;63002;48.134;-1.948;2024-01-30T10:14:02;19.00;59.20
74520;DHT22;63002;48.134;-1.948;2024-01-30T10:16:28;19.00;59.20
74520;DHT22;63002;48.134;-1.948;2024-01-30T10:18:54;19.00;59.20
74520;DHT22;63002;48.134;-1.948;2024-01-30T10:21:21;19.00;59.20
74520;DHT22;63002;48.134;-1.948;2024-01-30T10:23:46;19.00;59.10
74520;DHT22;63002;48.134;-1.948;2024-01-30T10:26:12;19.00;59.20
74520;DHT22;63002;48.134;-1.948;2024-01-30T10:28:38;19.00;59.10
74520;DHT22;63002;48.134;-1.948;2024-01-30T10:31:04;19.00;59.10
74520;DHT22;63002;48.134;-1.948;2024-01-30T10:33:32;19.00;59.20
74520;DHT22;63002;48.134;-1.948;2024-01-30T10:36:02;19.00;59.20
74520;DHT22;63002;48.134;-1.948;2024-01-30T10:38:29;19.00;59.20
74520;DHT22;63002;48.134;-1.948;2024-01-30T10:41:02;19.00;59.20
74520;DHT22;63002;48.134;-1.948;2024-01-30T10:43:35;18.90;59.10
74520;DHT22;63002;48.134;-1.948;2024-01-30T10:46:13;19.00;59.10
74520;DHT22;63002;48.134;-1.948;2024-01-30T10:48:43;18.90;59.10
74520;DHT22;63002;48.134;-1.948;2024-01-30T10:51:13;19.00;59.10
74520;DHT22;63002;48.134;-1.948;2024-01-30T10:53:39;19.00;59.10
74520;DHT22;63002;48.134;-1.948;2024-01-30T10:56:07;19.00;59.10
74520;DHT22;63002;48.134;-1.948;2024-01-30T10:58:33;19.00;59.10
74520;DHT22;63002;48.134;-1.948;2024-01-30T11:00:59;19.00;59.10
74520;DHT22;63002;48.134;-1.948;2024-01-30T11:03:25;19.00;59.00
74520;DHT22;63002;48.134;-1.948;2024-01-30T11:05:52;19.00;59.10
74520;DHT22;63002;48.134;-1.948;2024-01-30T11:08:26;18.90;59.10
74520;DHT22;63002;48.134;-1.948;2024-01-30T11:10:58;18.90;59.10
74520;DHT22;63002;48.134;-1.948;2024-01-30T11:13:31;19.00;59.10
74520;DHT22;63002;48.134;-1.948;2024-01-30T11:16:04;18.90;59.10
74520;DHT22;63002;48.134;-1.948;2024-01-30T11:18:31;19.00;59.10
74520;DHT22;63002;48.134;-1.948;2024-01-30T11:21:00;18.90;59.00
74520;DHT22;63002;48.134;-1.948;2024-01-30T11:23:30;19.00;59.00
74520;DHT22;63002;48.134;-1.948;2024-01-30T11:25:56;18.90;59.00
74520;DHT22;63002;48.134;-1.948;2024-01-30T11:28:23;19.00;59.00
74520;DHT22;63002;48.134;-1.948;2024-01-30T11:30:49;18.90;59.00
74520;DHT22;63002;48.134;-1.948;2024-01-30T11:33:30;18.90;59.00
74520;DHT22;63002;48.134;-1.948;2024-01-30T11:35:58;19.00;59.00
74520;DHT22;63002;48.134;-1.948;2024-01-30T11:38:27;19.00;59.00
74520;DHT22;63002;48.134;-1.948;2024-01-30T11:40:55;19.00;59.00
74520;DHT22;63002;48.134;-1.948;2024-01-30T11:43:24;19.00;59.00
74520;DHT22;63002;48.134;-1.948;2024-01-30T11:45:50;19.00;59.00
74520;DHT22;63002;48.134;-1.948;2024-01-30T11:48:16;19.00;59.00
74520;DHT22;63002;48.134;-1.948;2024-01-30T11:50:42;19.00;59.00
74520;DHT22;63002;48.134;-1.948;2024-01-30T11:53:10;19.00;59.00
74520;DHT22;63002;48.134;-1.948;2024-01-30T11:55:36;19.00;58.90
74520;DHT22;63002;48.134;-1.948;2024-01-30T11:58:03;18.90;59.00
74520;DHT22;63002;48.134;-1.948;2024-01-30T12:00:32;19.00;58.90
74520;DHT22;63002;48.134;-1.948;2024-01-30T12:02:59;19.00;58.90
74520;DHT22;63002;48.134;-1.948;2024-01-30T12:05:26;19.00;58.90
74520;DHT22;63002;48.134;-1.948;2024-01-30T12:07:53;19.00;58.90
74520;DHT22;63002;48.134;-1.948;2024-01-30T12:10:19;19.00;58.90
74520;DHT22;63002;48.134;-1.948;2024-01-30T12:12:51;19.00;58.90
74520;DHT22;63002;48.134;-1.948;2024-01-30T12:15:18;19.00;58.90
74520;DHT22;63002;48.134;-1.948;2024-01-30T12:17:44;19.00;58.90
74520;DHT22;63002;48.134;-1.948;2024-01-30T12:20:14;19.00;58.90
74520;DHT22;63002;48.134;-1.948;2024-01-30T12:22:46;19.00;58.90
74520;DHT22;63002;48.134;-1.948;2024-01-30T12:25:14;19.00;58.90
74520;DHT22;63002;48.134;-1.948;2024-01-30T12:27:42;19.00;58.90
74520;DHT22;63002;48.134;-1.948;2024-01-30T12:30:10;19.00;58.90
74520;DHT22;63002;48.134;-1.948;2024-01-30T12:32:36;19.00;58.90
74520;DHT22;63002;48.134;-1.948;2024-01-30T12:35:03;19.00;58.90
74520;DHT22;63002;48.134;-1.948;2024-01-30T12:37:30;19.00;58.80
74520;DHT22;63002;48.134;-1.948;2024-01-30T12:39:56;19.00;58.80
74520;DHT22;63002;48.134;-1.948;2024-01-30T12:42:22;19.00;58.80
74520;DHT22;63002;48.134;-1.948;2024-01-30T12:44:48;18.90;58.90
74520;DHT22;63002;48.134;-1.948;2024-01-30T12:47:14;18.90;58.80
74520;DHT22;63002;48.134;-1.948;2024-01-30T12:49:44;18.90;58.90
74520;DHT22;63002;48.134;-1.948;2024-01-30T12:52:11;19.00;58.80
74520;DHT22;63002;48.134;-1.948;2024-01-30T12:54:37;18.90;58.80
74520;DHT22;63002;48.134;-1.948;2024-01-30T12:57:04;18.90;58.80
74520;DHT22;63002;48.134;-1.948;2024-01-30T12:59:30;18.90;58.80
74520;DHT22;63002;48.134;-1.948;2024-01-30T13:01:56;19.00;58.80
74520;DHT22;63002;48.134;-1.948;2024-01-30T13:04:22;19.00;58.80
74520;DHT22;63002;48.134;-1.948;2024-01-30T13:06:48;18.90;58.80
74520;DHT22;63002;48.134;-1.948;2024-01-30T13:09:14;18.90;58.80
74520;DHT22;63002;48.134;-1.948;2024-01-30T13:11:40;18.90;58.70
74520;DHT22;63002;48.134;-1.948;2024-01-30T13:14:05;18.90;58.80
74520;DHT22;63002;48.134;-1.948;2024-01-30T13:16:31;18.90;58.80
74520;DHT22;63002;48.134;-1.948;2024-01-30T13:18:57;18.90;58.80
74520;DHT22;63002;48.134;-1.948;2024-01-30T13:21:22;18.90;58.70
74520;DHT22;63002;48.134;-1.948;2024-01-30T13:23:48;18.90;58.70
74520;DHT22;63002;48.134;-1.948;2024-01-30T13:26:18;18.90;58.70
74520;DHT22;63002;48.134;-1.948;2024-01-30T13:28:44;18.90;58.70
74520;DHT22;63002;48.134;-1.948;2024-01-30T13:31:10;18.90;58.70
74520;DHT22;63002;48.134;-1.948;2024-01-30T13:33:35;18.90;58.70
74520;DHT22;63002;48.134;-1.948;2024-01-30T13:36:01;18.90;58.70
74520;DHT22;63002;48.134;-1.948;2024-01-30T13:38:27;18.90;58.70
74520;DHT22;63002;48.134;-1.948;2024-01-30T13:40:53;18.90;58.70
74520;DHT22;63002;48.134;-1.948;2024-01-30T13:43:18;18.90;58.70
74520;DHT22;63002;48.134;-1.948;2024-01-30T13:45:44;18.90;58.70
74520;DHT22;63002;48.134;-1.948;2024-01-30T13:48:11;18.90;58.70
74520;DHT22;63002;48.134;-1.948;2024-01-30T13:50:37;18.90;58.70
74520;DHT22;63002;48.134;-1.948;2024-01-30T13:53:03;18.90;58.70
74520;DHT22;63002;48.134;-1.948;2024-01-30T13:55:30;18.90;58.70
74520;DHT22;63002;48.134;-1.948;2024-01-30T13:57:55;18.90;58.60
74520;DHT22;63002;48.134;-1.948;2024-01-30T14:00:22;18.90;58.60
74520;DHT22;63002;48.134;-1.948;2024-01-30T14:02:48;18.90;58.60
74520;DHT22;63002;48.134;-1.948;2024-01-30T14:05:14;18.90;58.60
74520;DHT22;63002;48.134;-1.948;2024-01-30T14:07:40;18.90;58.60
74520;DHT22;63002;48.134;-1.948;2024-01-30T14:10:09;18.90;58.60
74520;DHT22;63002;48.134;-1.948;2024-01-30T14:12:36;18.90;58.60
74520;DHT22;63002;48.134;-1.948;2024-01-30T14:15:02;18.90;58.50
74520;DHT22;63002;48.134;-1.948;2024-01-30T14:17:28;18.90;58.50
74520;DHT22;63002;48.134;-1.948;2024-01-30T14:19:54;18.90;58.50
74520;DHT22;63002;48.134;-1.948;2024-01-30T14:22:19;18.90;58.50
74520;DHT22;63002;48.134;-1.948;2024-01-30T14:24:45;18.90;58.50
74520;DHT22;63002;48.134;-1.948;2024-01-30T14:27:11;18.90;58.50
74520;DHT22;63002;48.134;-1.948;2024-01-30T14:29:36;18.90;58.40
74520;DHT22;63002;48.134;-1.948;2024-01-30T14:32:02;18.90;58.40
74520;DHT22;63002;48.134;-1.948;2024-01-30T14:34:29;18.90;58.40
74520;DHT22;63002;48.134;-1.948;2024-01-30T14:36:55;18.90;58.40
74520;DHT22;63002;48.134;-1.948;2024-01-30T14:39:21;18.90;58.40
74520;DHT22;63002;48.134;-1.948;2024-01-30T14:41:47;18.90;58.40
74520;DHT22;63002;48.134;-1.948;2024-01-30T14:44:13;18.90;58.40
74520;DHT22;63002;48.134;-1.948;2024-01-30T14:46:39;18.90;58.40
74520;DHT22;63002;48.134;-1.948;2024-01-30T14:49:05;18.90;58.40
74520;DHT22;63002;48.134;-1.948;2024-01-30T14:51:33;18.90;58.50
74520;DHT22;63002;48.134;-1.948;2024-01-30T14:53:59;18.90;58.40
74520;DHT22;63002;48.134;-1.948;2024-01-30T14:56:26;18.90;58.40
74520;DHT22;63002;48.134;-1.948;2024-01-30T14:58:52;18.90;58.40
74520;DHT22;63002;48.134;-1.948;2024-01-30T15:01:17;18.90;58.40
74520;DHT22;63002;48.134;-1.948;2024-01-30T15:03:44;18.90;58.40
74520;DHT22;63002;48.134;-1.948;2024-01-30T15:06:12;18.90;58.40
74520;DHT22;63002;48.134;-1.948;2024-01-30T15:08:38;18.90;58.30
74520;DHT22;63002;48.134;-1.948;2024-01-30T15:11:03;18.90;58.40
74520;DHT22;63002;48.134;-1.948;2024-01-30T15:13:30;18.90;58.40
74520;DHT22;63002;48.134;-1.948;2024-01-30T15:15:56;18.80;58.40
74520;DHT22;63002;48.134;-1.948;2024-01-30T15:18:22;18.80;58.40
74520;DHT22;63002;48.134;-1.948;2024-01-30T15:20:49;18.80;58.30
74520;DHT22;63002;48.134;-1.948;2024-01-30T15:23:14;18.80;58.30
74520;DHT22;63002;48.134;-1.948;2024-01-30T15:25:41;18.80;58.30
74520;DHT22;63002;48.134;-1.948;2024-01-30T15:28:07;18.80;58.30
74520;DHT22;63002;48.134;-1.948;2024-01-30T15:30:34;18.80;58.30
74520;DHT22;63002;48.134;-1.948;2024-01-30T15:33:00;18.80;58.00
74520;DHT22;63002;48.134;-1.948;2024-01-30T15:35:26;18.90;57.70
74520;DHT22;63002;48.134;-1.948;2024-01-30T15:37:51;18.90;57.70
74520;DHT22;63002;48.134;-1.948;2024-01-30T15:40:17;18.90;57.70
74520;DHT22;63002;48.134;-1.948;2024-01-30T15:42:44;18.90;57.80
74520;DHT22;63002;48.134;-1.948;2024-01-30T15:45:09;18.80;57.80
74520;DHT22;63002;48.134;-1.948;2024-01-30T15:47:35;18.80;57.90
74520;DHT22;63002;48.134;-1.948;2024-01-30T15:50:02;18.80;57.90
74520;DHT22;63002;48.134;-1.948;2024-01-30T15:52:29;18.80;57.20
74520;DHT22;63002;48.134;-1.948;2024-01-30T15:54:55;18.80;57.30
74520;DHT22;63002;48.134;-1.948;2024-01-30T15:57:20;18.90;57.00
74520;DHT22;63002;48.134;-1.948;2024-01-30T15:59:46;18.80;57.20
74520;DHT22;63002;48.134;-1.948;2024-01-30T16:02:15;18.80;57.30
74520;DHT22;63002;48.134;-1.948;2024-01-30T16:04:40;18.80;57.30
74520;DHT22;63002;48.134;-1.948;2024-01-30T16:07:06;18.80;57.40
74520;DHT22;63002;48.134;-1.948;2024-01-30T16:09:32;18.80;57.50
74520;DHT22;63002;48.134;-1.948;2024-01-30T16:11:58;18.80;57.60
74520;DHT22;63002;48.134;-1.948;2024-01-30T16:14:24;18.80;57.60
74520;DHT22;63002;48.134;-1.948;2024-01-30T16:16:49;18.80;57.60
74520;DHT22;63002;48.134;-1.948;2024-01-30T16:19:15;18.80;57.60
74520;DHT22;63002;48.134;-1.948;2024-01-30T16:21:41;18.80;57.70
74520;DHT22;63002;48.134;-1.948;2024-01-30T16:24:09;18.80;57.70
74520;DHT22;63002;48.134;-1.948;2024-01-30T16:26:35;18.80;57.80
74520;DHT22;63002;48.134;-1.948;2024-01-30T16:29:01;18.80;57.80
74520;DHT22;63002;48.134;-1.948;2024-01-30T16:31:26;18.80;57.80
74520;DHT22;63002;48.134;-1.948;2024-01-30T16:33:52;18.80;57.80
74520;DHT22;63002;48.134;-1.948;2024-01-30T16:36:19;18.80;57.80
74520;DHT22;63002;48.134;-1.948;2024-01-30T16:38:46;18.80;57.80
74520;DHT22;63002;48.134;-1.948;2024-01-30T16:41:12;18.80;57.80
74520;DHT22;63002;48.134;-1.948;2024-01-30T16:43:37;18.80;57.90
74520;DHT22;63002;48.134;-1.948;2024-01-30T16:46:03;18.80;57.80
74520;DHT22;63002;48.134;-1.948;2024-01-30T16:48:30;18.80;57.80
74520;DHT22;63002;48.134;-1.948;2024-01-30T16:50:56;18.80;57.80
74520;DHT22;63002;48.134;-1.948;2024-01-30T16:53:22;18.80;57.80
74520;DHT22;63002;48.134;-1.948;2024-01-30T16:55:47;18.70;57.80
74520;DHT22;63002;48.134;-1.948;2024-01-30T16:58:13;18.80;57.80
74520;DHT22;63002;48.134;-1.948;2024-01-30T17:00:39;18.80;57.80
74520;DHT22;63002;48.134;-1.948;2024-01-30T17:03:05;18.80;57.90
74520;DHT22;63002;48.134;-1.948;2024-01-30T17:05:31;18.80;57.80
74520;DHT22;63002;48.134;-1.948;2024-01-30T17:07:57;18.80;57.80
74520;DHT22;63002;48.134;-1.948;2024-01-30T17:10:24;18.60;56.80
74520;DHT22;63002;48.134;-1.948;2024-01-30T17:12:50;18.70;55.60
74520;DHT22;63002;48.134;-1.948;2024-01-30T17:15:16;18.60;56.60
74520;DHT22;63002;48.134;-1.948;2024-01-30T17:17:41;18.30;55.60
74520;DHT22;63002;48.134;-1.948;2024-01-30T17:20:07;18.30;56.80
74520;DHT22;63002;48.134;-1.948;2024-01-30T17:22:33;18.40;56.50
74520;DHT22;63002;48.134;-1.948;2024-01-30T17:24:59;18.50;56.40
74520;DHT22;63002;48.134;-1.948;2024-01-30T17:27:25;18.50;56.60
74520;DHT22;63002;48.134;-1.948;2024-01-30T17:29:50;18.60;56.80
74520;DHT22;63002;48.134;-1.948;2024-01-30T17:32:16;18.60;56.90
74520;DHT22;63002;48.134;-1.948;2024-01-30T17:34:42;18.40;55.40
74520;DHT22;63002;48.134;-1.948;2024-01-30T17:37:08;18.50;56.70
74520;DHT22;63002;48.134;-1.948;2024-01-30T17:39:33;18.60;56.20
74520;DHT22;63002;48.134;-1.948;2024-01-30T17:41:59;18.70;56.40
74520;DHT22;63002;48.134;-1.948;2024-01-30T17:44:25;18.70;56.40
74520;DHT22;63002;48.134;-1.948;2024-01-30T17:46:51;18.70;56.50
74520;DHT22;63002;48.134;-1.948;2024-01-30T17:49:17;18.70;56.60
74520;DHT22;63002;48.134;-1.948;2024-01-30T17:51:43;18.70;56.50
74520;DHT22;63002;48.134;-1.948;2024-01-30T17:54:09;18.80;56.40
74520;DHT22;63002;48.134;-1.948;2024-01-30T17:56:35;18.90;56.10
74520;DHT22;63002;48.134;-1.948;2024-01-30T17:59:01;19.10;55.80
74520;DHT22;63002;48.134;-1.948;2024-01-30T18:01:27;19.20;55.60
74520;DHT22;63002;48.134;-1.948;2024-01-30T18:03:54;19.20;55.50
74520;DHT22;63002;48.134;-1.948;2024-01-30T18:06:23;19.30;55.30
74520;DHT22;63002;48.134;-1.948;2024-01-30T18:08:49;19.30;55.20
74520;DHT22;63002;48.134;-1.948;2024-01-30T18:11:15;19.30;55.20
74520;DHT22;63002;48.134;-1.948;2024-01-30T18:13:42;19.20;54.80
74520;DHT22;63002;48.134;-1.948;2024-01-30T18:16:07;19.20;55.40
74520;DHT22;63002;48.134;-1.948;2024-01-30T18:18:33;19.30;55.10
74520;DHT22;63002;48.134;-1.948;2024-01-30T18:21:00;19.40;55.40
74520;DHT22;63002;48.134;-1.948;2024-01-30T18:23:26;19.40;54.80
74520;DHT22;63002;48.134;-1.948;2024-01-30T18:25:51;18.90;55.60
74520;DHT22;63002;48.134;-1.948;2024-01-30T18:28:25;19.10;55.30
74520;DHT22;63002;48.134;-1.948;2024-01-30T18:30:51;19.20;55.00
74520;DHT22;63002;48.134;-1.948;2024-01-30T18:33:17;19.30;54.80
74520;DHT22;63002;48.134;-1.948;2024-01-30T18:35:43;19.30;54.70
74520;DHT22;63002;48.134;-1.948;2024-01-30T18:38:09;19.30;54.60
74520;DHT22;63002;48.134;-1.948;2024-01-30T18:40:35;19.40;54.40
74520;DHT22;63002;48.134;-1.948;2024-01-30T18:43:01;19.40;54.40
74520;DHT22;63002;48.134;-1.948;2024-01-30T18:45:30;19.30;54.60
74520;DHT22;63002;48.134;-1.948;2024-01-30T18:47:55;19.30;54.90
74520;DHT22;63002;48.134;-1.948;2024-01-30T18:50:21;19.30;55.10
74520;DHT22;63002;48.134;-1.948;2024-01-30T18:52:47;19.30;55.20
74520;DHT22;63002;48.134;-1.948;2024-01-30T18:55:13;19.30;55.30
74520;DHT22;63002;48.134;-1.948;2024-01-30T18:57:38;19.20;55.30
74520;DHT22;63002;48.134;-1.948;2024-01-30T19:00:05;18.90;55.50
74520;DHT22;63002;48.134;-1.948;2024-01-30T19:02:30;18.90;55.90
74520;DHT22;63002;48.134;-1.948;2024-01-30T19:04:56;19.00;55.90
74520;DHT22;63002;48.134;-1.948;2024-01-30T19:07:24;19.00;55.80
74520;DHT22;63002;48.134;-1.948;2024-01-30T19:09:51;19.00;55.90
74520;DHT22;63002;48.134;-1.948;2024-01-30T19:12:18;19.00;56.00
74520;DHT22;63002;48.134;-1.948;2024-01-30T19:14:43;19.10;56.10
74520;DHT22;63002;48.134;-1.948;2024-01-30T19:17:09;19.10;56.10
74520;DHT22;63002;48.134;-1.948;2024-01-30T19:19:35;19.10;56.10
74520;DHT22;63002;48.134;-1.948;2024-01-30T19:22:01;19.10;56.20
74520;DHT22;63002;48.134;-1.948;2024-01-30T19:24:26;18.80;55.90
74520;DHT22;63002;48.134;-1.948;2024-01-30T19:26:52;19.10;55.80
74520;DHT22;63002;48.134;-1.948;2024-01-30T19:29:18;19.20;55.40
74520;DHT22;63002;48.134;-1.948;2024-01-30T19:31:47;19.20;55.50
74520;DHT22;63002;48.134;-1.948;2024-01-30T19:34:14;19.10;55.70
74520;DHT22;63002;48.134;-1.948;2024-01-30T19:36:39;19.00;55.30
74520;DHT22;63002;48.134;-1.948;2024-01-30T19:39:06;18.90;56.00
74520;DHT22;63002;48.134;-1.948;2024-01-30T19:41:41;19.00;56.20
74520;DHT22;63002;48.134;-1.948;2024-01-30T19:44:08;19.00;56.10
74520;DHT22;63002;48.134;-1.948;2024-01-30T19:46:34;19.00;56.40
74520;DHT22;63002;48.134;-1.948;2024-01-30T19:48:59;19.00;56.60
74520;DHT22;63002;48.134;-1.948;2024-01-30T19:51:25;19.10;56.70
74520;DHT22;63002;48.134;-1.948;2024-01-30T19:53:51;19.10;56.70
74520;DHT22;63002;48.134;-1.948;2024-01-30T19:56:16;19.10;56.70
74520;DHT22;63002;48.134;-1.948;2024-01-30T19:58:43;19.10;56.80
74520;DHT22;63002;48.134;-1.948;2024-01-30T20:01:09;19.10;56.90
74520;DHT22;63002;48.134;-1.948;2024-01-30T20:03:34;19.10;56.90
74520;DHT22;63002;48.134;-1.948;2024-01-30T20:06:00;19.10;56.90
74520;DHT22;63002;48.134;-1.948;2024-01-30T20:08:26;19.10;57.00
74520;DHT22;63002;48.134;-1.948;2024-01-30T20:10:54;19.00;57.00
74520;DHT22;63002;48.134;-1.948;2024-01-30T20:13:20;19.10;57.00
74520;DHT22;63002;48.134;-1.948;2024-01-30T20:15:46;19.00;57.00
74520;DHT22;63002;48.134;-1.948;2024-01-30T20:18:11;19.10;57.00
74520;DHT22;63002;48.134;-1.948;2024-01-30T20:20:37;19.00;57.00
74520;DHT22;63002;48.134;-1.948;2024-01-30T20:23:05;19.00;57.00
74520;DHT22;63002;48.134;-1.948;2024-01-30T20:25:30;19.00;57.10
74520;DHT22;63002;48.134;-1.948;2024-01-30T20:27:56;18.70;54.50
74520;DHT22;63002;48.134;-1.948;2024-01-30T20:30:23;18.60;56.10
74520;DHT22;63002;48.134;-1.948;2024-01-30T20:32:49;18.70;56.40
74520;DHT22;63002;48.134;-1.948;2024-01-30T20:35:16;18.70;56.40
74520;DHT22;63002;48.134;-1.948;2024-01-30T20:37:42;18.90;56.60
74520;DHT22;63002;48.134;-1.948;2024-01-30T20:40:08;19.00;56.60
74520;DHT22;63002;48.134;-1.948;2024-01-30T20:42:34;18.90;56.80
74520;DHT22;63002;48.134;-1.948;2024-01-30T20:45:02;18.90;56.90
74520;DHT22;63002;48.134;-1.948;2024-01-30T20:47:29;18.90;56.90
74520;DHT22;63002;48.134;-1.948;2024-01-30T20:49:54;18.90;57.00
74520;DHT22;63002;48.134;-1.948;2024-01-30T20:52:20;18.90;57.00
74520;DHT22;63002;48.134;-1.948;2024-01-30T20:54:47;18.90;57.00
74520;DHT22;63002;48.134;-1.948;2024-01-30T20:57:13;18.90;57.00
74520;DHT22;63002;48.134;-1.948;2024-01-30T20:59:39;18.90;57.10
74520;DHT22;63002;48.134;-1.948;2024-01-30T21:02:05;18.90;57.10
74520;DHT22;63002;48.134;-1.948;2024-01-30T21:04:31;18.90;57.10
74520;DHT22;63002;48.134;-1.948;2024-01-30T21:06:57;18.90;57.10
74520;DHT22;63002;48.134;-1.948;2024-01-30T21:09:22;18.90;57.20